createdAt,value
2018-04-17T05:21:12.152Z,8.16
2018-04-17T05:22:12.128Z,8.14
2018-04-17T05:23:12.100Z,8.23
2018-04-17T05:24:12.081Z,8.19
2018-04-17T05:25:12.050Z,8.21
2018-04-17T05:26:12.057Z,8.23
2018-04-17T05:27:12.003Z,8.20
2018-04-17T05:28:11.998Z,8.35
2018-04-17T05:29:11.960Z,8.35
2018-04-17T05:30:11.943Z,8.37
2018-04-17T05:31:11.924Z,8.44
2018-04-17T05:32:11.895Z,8.47
2018-04-17T05:33:11.933Z,8.42
2018-04-17T05:34:11.860Z,8.55
2018-04-17T05:35:11.850Z,8.44
2018-04-17T05:36:11.805Z,8.50
2018-04-17T05:37:11.787Z,8.56
2018-04-17T05:38:11.785Z,8.56
2018-04-17T05:39:11.738Z,8.67
2018-04-17T05:40:11.759Z,8.65
2018-04-17T05:41:11.707Z,8.68
2018-04-17T05:42:11.712Z,8.77
2018-04-17T05:43:11.660Z,8.74
2018-04-17T05:44:11.648Z,8.75
2018-04-17T05:45:11.625Z,8.83
2018-04-17T05:46:11.631Z,8.78
2018-04-17T05:47:11.605Z,8.90
2018-04-17T05:48:11.565Z,8.89
2018-04-17T05:49:11.546Z,8.90
2018-04-17T05:50:11.565Z,9.03
2018-04-17T05:51:11.523Z,9.11
2018-04-17T05:52:11.561Z,9.11
2018-04-17T05:53:11.454Z,9.12
2018-04-17T05:54:11.436Z,9.32
2018-04-17T05:55:11.443Z,9.30
2018-04-17T05:56:11.440Z,9.47
2018-04-17T05:57:11.376Z,9.50
2018-04-17T05:58:11.363Z,9.48
2018-04-17T05:59:11.335Z,9.59
2018-04-17T06:00:11.342Z,9.70
2018-04-17T06:01:11.339Z,9.70
2018-04-17T06:02:11.310Z,9.80
2018-04-17T06:03:11.260Z,9.80
2018-04-17T06:04:11.264Z,9.93
2018-04-17T06:05:11.292Z,9.99
2018-04-17T06:06:11.220Z,10.06
2018-04-17T06:07:11.215Z,10.09
2018-04-17T06:08:11.210Z,10.21
2018-04-17T06:09:11.152Z,10.24
2018-04-17T06:10:11.140Z,10.34
2018-04-17T06:11:11.139Z,10.36
2018-04-17T06:12:11.115Z,10.52
2018-04-17T06:13:11.081Z,10.64
2018-04-17T06:14:11.092Z,10.65
2018-04-17T06:15:11.043Z,10.85
2018-04-17T06:16:11.037Z,10.86
2018-04-17T06:17:11.015Z,11.01
2018-04-17T06:18:10.999Z,11.08
2018-04-17T06:19:10.979Z,11.13
2018-04-17T06:20:10.957Z,11.22
2018-04-17T06:21:10.940Z,11.33
2018-04-17T06:22:10.928Z,11.38
2018-04-17T06:23:10.949Z,11.52
2018-04-17T06:24:10.887Z,11.56
2018-04-17T06:25:10.887Z,11.74
2018-04-17T06:26:10.854Z,11.73
2018-04-17T06:27:10.861Z,11.93
2018-04-17T06:28:10.850Z,12.07
2018-04-17T06:29:10.806Z,11.99
2018-04-17T06:30:10.797Z,12.03
2018-04-17T06:31:10.783Z,12.07
2018-04-17T06:32:10.770Z,12.11
2018-04-17T06:33:10.755Z,12.17
2018-04-17T06:34:10.737Z,12.29
2018-04-17T06:35:10.772Z,12.36
2018-04-17T06:36:10.723Z,12.38
2018-04-17T06:37:10.726Z,12.47
2018-04-17T06:38:10.673Z,12.58
2018-04-17T06:39:10.661Z,12.63
2018-04-17T06:40:10.636Z,12.72
2018-04-17T06:41:10.641Z,12.79
2018-04-17T06:42:10.606Z,12.79
2018-04-17T06:43:10.602Z,12.88
2018-04-17T06:44:10.577Z,13.04
2018-04-17T06:45:10.568Z,13.09
2018-04-17T06:46:10.573Z,13.09
2018-04-17T06:47:10.543Z,13.21
2018-04-17T06:48:10.528Z,13.40
2018-04-17T06:49:10.505Z,13.35
2018-04-17T06:50:10.493Z,13.49
2018-04-17T06:51:10.485Z,13.58
2018-04-17T06:52:10.511Z,13.47
2018-04-17T06:53:10.453Z,13.55
2018-04-17T06:54:10.447Z,13.57
2018-04-17T06:55:10.428Z,13.65
2018-04-17T06:56:10.443Z,13.55
2018-04-17T06:57:10.413Z,13.53
2018-04-17T06:58:10.431Z,13.60
2018-04-17T06:59:10.388Z,13.61
2018-04-17T07:00:10.384Z,13.65
2018-04-17T07:01:10.364Z,13.73
2018-04-17T07:02:10.341Z,13.82
2018-04-17T07:03:10.334Z,13.88
2018-04-17T07:04:10.340Z,13.90
2018-04-17T07:05:10.327Z,13.88
2018-04-17T07:06:10.290Z,13.90
2018-04-17T07:07:10.282Z,13.94
2018-04-17T07:08:10.275Z,13.98
2018-04-17T07:09:10.252Z,14.05
2018-04-17T07:10:10.245Z,14.12
2018-04-17T07:11:10.233Z,14.12
2018-04-17T07:12:10.217Z,14.11
2018-04-17T07:13:10.211Z,14.18
2018-04-17T07:14:10.189Z,14.21
2018-04-17T07:15:10.206Z,14.22
2018-04-17T07:16:10.195Z,14.19
2018-04-17T07:17:10.175Z,14.37
2018-04-17T07:18:10.170Z,14.30
2018-04-17T07:19:10.129Z,14.52
2018-04-17T07:20:10.116Z,14.46
2018-04-17T07:21:10.104Z,14.59
2018-04-17T07:22:10.117Z,14.53
2018-04-17T07:23:10.087Z,14.52
2018-04-17T07:24:10.071Z,14.69
2018-04-17T07:25:10.129Z,14.77
2018-04-17T07:26:10.074Z,14.73
2018-04-17T07:27:10.034Z,14.90
2018-04-17T07:28:10.019Z,14.96
2018-04-17T07:29:10.022Z,14.95
2018-04-17T07:30:09.984Z,14.90
2018-04-17T07:31:09.968Z,14.97
2018-04-17T07:32:09.989Z,15.10
2018-04-17T07:33:09.968Z,14.90
2018-04-17T07:34:09.949Z,14.95
2018-04-17T07:35:09.923Z,15.03
2018-04-17T07:36:09.901Z,15.11
2018-04-17T07:37:09.885Z,15.03
2018-04-17T07:38:09.908Z,15.07
2018-04-17T07:39:09.865Z,15.08
2018-04-17T07:40:09.845Z,15.23
2018-04-17T07:41:09.839Z,15.20
2018-04-17T07:42:09.819Z,15.26
2018-04-17T07:43:09.807Z,15.30
2018-04-17T07:44:09.829Z,15.43
2018-04-17T07:45:09.783Z,15.44
2018-04-17T07:46:09.800Z,15.47
2018-04-17T07:47:09.784Z,15.48
2018-04-17T07:48:09.734Z,15.45
2018-04-17T07:49:09.721Z,15.50
2018-04-17T07:50:09.720Z,15.45
2018-04-17T07:51:09.910Z,15.51
2018-04-17T07:52:09.683Z,15.56
2018-04-17T07:53:09.693Z,15.56
2018-04-17T07:54:09.655Z,15.60
2018-04-17T07:55:09.638Z,15.73
2018-04-17T07:56:09.632Z,15.72
2018-04-17T07:57:09.627Z,15.68
2018-04-17T07:58:09.790Z,15.73
2018-04-17T07:59:09.600Z,15.76
2018-04-17T08:00:09.586Z,15.81
2018-04-17T08:01:09.907Z,15.83
2018-04-17T08:02:09.531Z,15.95
2018-04-17T08:03:09.519Z,15.99
2018-04-17T08:04:09.506Z,16.02
2018-04-17T08:05:09.489Z,16.10
2018-04-17T08:06:09.480Z,16.02
2018-04-17T08:07:09.474Z,16.16
2018-04-17T08:08:09.464Z,16.09
2018-04-17T08:09:09.452Z,16.05
2018-04-17T08:10:09.415Z,16.17
2018-04-17T08:11:09.405Z,16.05
2018-04-17T08:12:09.410Z,16.08
2018-04-17T08:13:09.427Z,16.10
2018-04-17T08:14:09.384Z,16.13
2018-04-17T08:15:09.349Z,16.22
2018-04-17T08:16:09.360Z,16.29
2018-04-17T08:17:09.326Z,16.32
2018-04-17T08:18:09.315Z,16.42
2018-04-17T08:19:09.284Z,16.47
2018-04-17T08:20:09.289Z,16.47
2018-04-17T08:21:09.249Z,16.58
2018-04-17T08:22:09.243Z,16.58
2018-04-17T08:23:09.255Z,16.67
2018-04-17T08:24:09.229Z,16.65
2018-04-17T08:25:09.191Z,16.70
2018-04-17T08:26:09.200Z,16.67
2018-04-17T08:27:09.168Z,16.83
2018-04-17T08:28:09.145Z,16.87
2018-04-17T08:29:09.163Z,16.90
2018-04-17T08:30:09.133Z,16.95
2018-04-17T08:31:09.113Z,16.98
2018-04-17T08:32:09.117Z,17.22
2018-04-17T08:33:09.091Z,17.19
2018-04-17T08:34:09.075Z,17.13
2018-04-17T08:35:09.209Z,17.22
2018-04-17T08:36:09.071Z,17.16
2018-04-17T08:37:09.065Z,17.27
2018-04-17T08:38:09.076Z,17.30
2018-04-17T08:39:08.991Z,17.24
2018-04-17T08:40:09.027Z,17.28
2018-04-17T08:41:08.962Z,17.28
2018-04-17T08:42:08.957Z,17.31
2018-04-17T08:43:08.946Z,17.39
2018-04-17T08:44:09.001Z,17.41
2018-04-17T08:45:08.928Z,17.50
2018-04-17T08:46:08.944Z,17.56
2018-04-17T08:47:08.885Z,17.62
2018-04-17T08:48:08.898Z,17.62
2018-04-17T08:49:08.853Z,17.65
2018-04-17T08:50:08.894Z,17.72
2018-04-17T08:51:08.814Z,17.68
2018-04-17T08:52:08.795Z,17.69
2018-04-17T08:53:08.818Z,17.78
2018-04-17T08:54:08.808Z,17.84
2018-04-17T08:55:08.785Z,17.75
2018-04-17T08:56:08.783Z,17.96
2018-04-17T08:57:08.745Z,18.01
2018-04-17T08:58:08.708Z,17.91
2018-04-17T08:59:08.792Z,18.02
2018-04-17T09:00:08.698Z,17.99
2018-04-17T09:01:08.972Z,18.05
2018-04-17T09:02:08.656Z,18.01
2018-04-17T09:03:08.643Z,17.94
2018-04-17T09:04:08.657Z,18.05
2018-04-17T09:05:08.642Z,18.05
2018-04-17T09:06:08.606Z,17.96
2018-04-17T09:07:08.607Z,18.09
2018-04-17T09:08:08.591Z,18.12
2018-04-17T09:09:08.575Z,18.20
2018-04-17T09:10:08.548Z,18.24
2018-04-17T09:11:08.537Z,18.11
2018-04-17T09:12:16.227Z,17.96
2018-04-17T09:14:11.632Z,17.97
2018-04-17T09:15:02.907Z,18.08
2018-04-17T09:16:02.866Z,18.06
2018-04-17T09:17:03.127Z,18.13
2018-04-17T09:18:02.824Z,18.27
2018-04-17T09:20:25.865Z,18.24
2018-04-17T09:21:25.919Z,18.21
2018-04-17T09:22:25.873Z,18.27
2018-04-17T09:23:25.807Z,18.34
2018-04-17T09:24:25.777Z,18.38
2018-04-17T09:25:25.838Z,18.31
2018-04-17T09:26:25.777Z,18.36
2018-04-17T09:27:25.747Z,18.36
2018-04-17T09:28:25.744Z,18.18
2018-04-17T09:29:25.746Z,18.24
2018-04-17T09:30:25.696Z,18.24
2018-04-17T09:31:25.704Z,18.26
2018-04-17T09:32:25.751Z,18.26
2018-04-17T09:33:25.665Z,18.12
2018-04-17T09:34:25.732Z,18.21
2018-04-17T09:35:25.661Z,18.26
2018-04-17T09:36:25.635Z,18.42
2018-04-17T09:37:25.607Z,18.56
2018-04-17T09:38:25.650Z,18.61
2018-04-17T09:39:25.616Z,18.66
2018-04-17T09:40:25.596Z,18.74
2018-04-17T09:41:25.593Z,18.82
2018-04-17T09:42:25.554Z,18.96
2018-04-17T09:43:25.545Z,19.04
2018-04-17T09:44:25.535Z,19.05
2018-04-17T09:45:25.532Z,19.13
2018-04-17T09:46:25.522Z,19.17
2018-04-17T09:47:25.460Z,19.16
2018-04-17T09:48:25.496Z,19.22
2018-04-17T09:49:25.495Z,19.08
2018-04-17T09:50:25.436Z,18.93
2018-04-17T09:51:25.421Z,18.96
2018-04-17T09:52:25.425Z,18.97
2018-04-17T09:53:25.407Z,18.93
2018-04-17T09:54:25.367Z,18.96
2018-04-17T09:55:25.376Z,19.01
2018-04-17T09:56:25.374Z,19.22
2018-04-17T09:57:25.328Z,19.32
2018-04-17T09:58:25.350Z,19.35
2018-04-17T09:59:25.328Z,19.41
2018-04-17T10:00:25.293Z,19.52
2018-04-17T10:01:25.332Z,19.60
2018-04-17T10:02:25.299Z,19.70
2018-04-17T10:03:25.275Z,19.68
2018-04-17T10:04:25.247Z,19.68
2018-04-17T10:05:25.223Z,19.64
2018-04-17T10:06:25.222Z,19.64
2018-04-17T10:07:25.214Z,19.52
2018-04-17T10:08:25.205Z,19.42
2018-04-17T10:09:25.235Z,19.42
2018-04-17T10:10:25.194Z,19.15
2018-04-17T10:11:25.186Z,19.20
2018-04-17T10:12:25.212Z,19.17
2018-04-17T10:13:25.144Z,19.24
2018-04-17T10:14:32.807Z,19.24
2018-04-17T10:16:28.305Z,19.24
2018-04-17T10:17:19.487Z,19.42
2018-04-17T10:18:19.526Z,19.47
2018-04-17T10:19:19.449Z,19.50
2018-04-17T10:20:19.433Z,19.45
2018-04-17T10:21:19.452Z,19.37
2018-04-17T10:22:19.409Z,19.32
2018-04-17T10:23:19.400Z,19.22
2018-04-17T10:24:19.451Z,19.27
2018-04-17T10:25:19.382Z,19.32
2018-04-17T10:26:19.359Z,19.39
2018-04-17T10:27:19.351Z,19.50
2018-04-17T10:28:19.342Z,19.59
2018-04-17T10:29:19.318Z,19.75
2018-04-17T10:30:19.374Z,19.90
2018-04-17T10:31:19.319Z,19.96
2018-04-17T10:32:19.353Z,20.05
2018-04-17T10:33:19.519Z,20.09
2018-04-17T10:34:19.329Z,20.12
2018-04-17T10:35:19.294Z,20.04
2018-04-17T10:36:19.279Z,20.09
2018-04-17T10:37:19.251Z,20.05
2018-04-17T10:38:19.308Z,20.05
2018-04-17T10:39:19.224Z,19.94
2018-04-17T10:40:19.193Z,19.82
2018-04-17T10:41:19.169Z,19.75
2018-04-17T10:42:19.178Z,19.75
2018-04-17T10:43:19.190Z,19.71
2018-04-17T10:44:19.129Z,19.62
2018-04-17T10:45:19.155Z,19.52
2018-04-17T10:46:19.115Z,19.53
2018-04-17T10:47:19.097Z,19.63
2018-04-17T10:48:19.084Z,19.72
2018-04-17T10:50:50.813Z,19.82
2018-04-17T10:51:42.086Z,19.86
2018-04-17T10:52:42.072Z,19.77
2018-04-17T10:53:42.069Z,19.79
2018-04-17T10:54:42.063Z,19.84
2018-04-17T10:55:42.127Z,19.86
2018-04-17T10:56:42.070Z,19.71
2018-04-17T10:57:42.019Z,19.72
2018-04-17T10:58:42.011Z,19.68
2018-04-17T10:59:42.038Z,19.75
2018-04-17T11:00:41.996Z,19.72
2018-04-17T11:01:41.956Z,19.86
2018-04-17T11:02:41.948Z,19.84
2018-04-17T11:03:41.929Z,19.87
2018-04-17T11:04:41.928Z,19.92
2018-04-17T11:05:41.929Z,20.00
2018-04-17T11:06:41.901Z,20.08
2018-04-17T11:07:41.880Z,20.19
2018-04-17T11:08:41.877Z,20.11
2018-04-17T11:09:41.849Z,20.14
2018-04-17T11:10:41.851Z,20.27
2018-04-17T11:11:49.544Z,20.33
2018-04-17T11:13:36.255Z,20.41
2018-04-17T11:14:36.367Z,20.34
2018-04-17T11:15:36.195Z,20.27
2018-04-17T11:16:36.179Z,20.39
2018-04-17T11:17:36.306Z,20.25
2018-04-17T11:18:36.204Z,20.30
2018-04-17T11:19:36.154Z,20.27
2018-04-17T11:22:01.257Z,20.46
2018-04-17T11:23:00.881Z,20.39
2018-04-17T11:24:00.836Z,20.42
2018-04-17T11:25:00.812Z,20.29
2018-04-17T11:27:33.347Z,20.29
2018-04-17T11:28:23.938Z,20.41
2018-04-17T11:29:24.020Z,20.26
2018-04-17T11:30:23.974Z,20.30
2018-04-17T11:31:23.835Z,20.49
2018-04-17T11:32:23.799Z,20.53
2018-04-17T11:33:23.826Z,20.56
2018-04-17T11:34:23.785Z,20.68
2018-04-17T11:35:23.784Z,20.70
2018-04-17T11:36:24.349Z,20.71
2018-04-17T11:39:00.436Z,20.71
2018-04-17T11:39:59.998Z,20.68
2018-04-17T11:40:59.834Z,20.92
2018-04-17T11:41:59.855Z,20.98
2018-04-17T11:42:59.994Z,20.86
2018-04-17T11:43:59.808Z,20.89
2018-04-17T11:44:59.803Z,20.90
2018-04-17T11:45:59.763Z,21.01
2018-04-17T11:46:59.813Z,21.01
2018-04-17T11:47:59.894Z,21.10
2018-04-17T11:48:59.937Z,21.16
2018-04-17T11:49:59.709Z,21.08
2018-04-17T11:50:59.777Z,21.08
2018-04-17T11:52:00.498Z,21.10
2018-04-17T11:52:59.803Z,21.23
2018-04-17T11:53:59.678Z,21.20
2018-04-17T11:54:59.710Z,21.35
2018-04-17T11:55:59.658Z,21.40
2018-04-17T11:56:59.634Z,21.44
2018-04-17T11:57:59.637Z,21.47
2018-04-17T11:58:59.636Z,21.34
2018-04-17T11:59:59.651Z,21.37
2018-04-17T12:00:59.616Z,21.19
2018-04-17T12:01:59.567Z,21.30
2018-04-17T12:02:59.812Z,21.37
2018-04-17T12:03:59.552Z,21.48
2018-04-17T12:04:59.537Z,21.55
2018-04-17T12:05:59.564Z,21.56
2018-04-17T12:06:59.527Z,21.45
2018-04-17T12:07:59.505Z,21.56
2018-04-17T12:08:59.488Z,21.45
2018-04-17T12:09:59.477Z,21.30
2018-04-17T12:10:59.477Z,21.22
2018-04-17T12:11:59.488Z,21.20
2018-04-17T12:12:59.464Z,21.30
2018-04-17T12:13:59.434Z,21.30
2018-04-17T12:14:59.422Z,21.44
2018-04-17T12:15:59.529Z,21.30
2018-04-17T12:18:32.535Z,21.45
2018-04-17T12:19:31.714Z,21.56
2018-04-17T12:21:24.810Z,21.51
2018-04-17T12:23:39.920Z,21.66
2018-04-17T12:24:38.904Z,21.81
2018-04-17T12:25:38.878Z,21.81
2018-04-17T12:26:38.855Z,21.96
2018-04-17T12:27:38.840Z,21.90
2018-04-17T12:28:38.838Z,21.97
2018-04-17T12:29:38.807Z,22.09
2018-04-17T12:30:38.804Z,22.15
2018-04-17T12:33:12.045Z,22.49
2018-04-17T12:34:01.900Z,22.37
2018-04-17T12:35:01.838Z,22.18
2018-04-17T12:36:01.798Z,22.18
2018-04-17T12:37:01.803Z,22.13
2018-04-17T12:38:01.801Z,22.33
2018-04-17T12:39:01.788Z,22.30
2018-04-17T12:40:01.763Z,22.21
2018-04-17T12:41:01.732Z,22.07
2018-04-17T12:42:01.735Z,21.85
2018-04-17T12:43:01.752Z,21.94
2018-04-17T12:44:01.746Z,21.85
2018-04-17T12:46:32.453Z,22.04
2018-04-17T12:47:24.750Z,22.19
2018-04-17T12:49:29.185Z,22.46
2018-04-17T12:50:19.094Z,22.67
2018-04-17T12:51:19.115Z,22.77
2018-04-17T12:52:19.150Z,22.73
2018-04-17T12:53:19.076Z,22.80
2018-04-17T12:54:19.058Z,22.71
2018-04-17T12:55:19.029Z,22.83
2018-04-17T12:57:42.073Z,23.06
2018-04-17T12:58:42.087Z,22.93
2018-04-17T12:59:42.062Z,22.81
2018-04-17T13:00:42.029Z,22.91
2018-04-17T13:01:42.052Z,23.03
2018-04-17T13:02:42.059Z,23.15
2018-04-17T13:03:42.041Z,23.31
2018-04-17T13:04:42.000Z,23.39
2018-04-17T13:05:41.985Z,23.04
2018-04-17T13:06:41.990Z,23.01
2018-04-17T13:07:42.004Z,23.08
2018-04-17T13:10:14.286Z,23.22
2018-04-17T13:11:05.042Z,23.22
2018-04-17T13:12:12.699Z,23.17
2018-04-17T13:13:58.393Z,23.70
2018-04-17T13:14:58.347Z,23.97
2018-04-17T13:17:04.911Z,24.31
2018-04-17T13:17:53.761Z,24.45
2018-04-17T13:18:53.737Z,24.68
2018-04-17T13:19:53.762Z,24.82
2018-04-17T13:20:53.733Z,24.81
2018-04-17T13:21:53.711Z,24.97
2018-04-17T13:22:53.710Z,25.36
2018-04-17T13:23:53.784Z,25.43
2018-04-17T13:24:53.736Z,25.38
2018-04-17T13:25:53.707Z,25.36
2018-04-17T13:26:53.706Z,25.45
2018-04-17T13:27:53.681Z,25.55
2018-04-17T13:28:53.669Z,25.64
2018-04-17T13:29:53.649Z,25.56
2018-04-17T13:30:53.673Z,24.86
2018-04-17T13:31:53.685Z,24.62
2018-04-17T13:32:53.664Z,24.71
2018-04-17T13:33:53.630Z,24.60
2018-04-17T13:34:53.628Z,24.45
2018-04-17T13:35:53.615Z,24.74
2018-04-17T13:36:53.645Z,24.84
2018-04-17T13:37:53.654Z,24.63
2018-04-17T13:38:53.607Z,24.56
2018-04-17T13:39:53.622Z,24.47
2018-04-17T13:40:53.619Z,24.63
2018-04-17T13:41:53.612Z,24.86
2018-04-17T13:42:53.608Z,24.63
2018-04-17T13:43:53.601Z,24.21
2018-04-17T13:44:53.576Z,24.52
2018-04-17T13:45:53.600Z,24.84
2018-04-17T13:46:53.565Z,25.19
2018-04-17T13:47:53.596Z,25.45
2018-04-17T13:48:53.623Z,25.40
2018-04-17T13:49:53.608Z,25.16
2018-04-17T13:50:53.570Z,25.31
2018-04-17T13:51:53.590Z,25.48
2018-04-17T13:52:53.629Z,25.64
2018-04-17T13:53:53.542Z,25.82
2018-04-17T13:54:53.527Z,26.00
2018-04-17T13:55:53.576Z,26.08
2018-04-17T13:56:53.524Z,26.31
2018-04-17T13:57:53.547Z,26.11
2018-04-17T13:58:53.566Z,25.96
2018-04-17T13:59:53.512Z,26.10
2018-04-17T14:00:53.509Z,25.82
2018-04-17T14:01:53.503Z,25.56
2018-04-17T14:02:53.525Z,25.53
2018-04-17T14:03:53.555Z,25.23
2018-04-17T14:04:53.527Z,25.40
2018-04-17T14:05:53.520Z,25.66
2018-04-17T14:06:53.505Z,25.22
2018-04-17T14:07:53.529Z,24.76
2018-04-17T14:08:53.486Z,24.79
2018-04-17T14:09:53.577Z,24.84
2018-04-17T14:10:53.477Z,24.78
2018-04-17T14:11:53.482Z,24.82
2018-04-17T14:12:53.477Z,24.78
2018-04-17T14:13:53.516Z,24.70
2018-04-17T14:14:53.468Z,24.66
2018-04-17T14:15:53.452Z,24.71
2018-04-17T14:16:53.533Z,24.66
2018-04-17T14:17:53.583Z,24.66
2018-04-17T14:18:53.457Z,24.75
2018-04-17T14:19:53.714Z,24.68
2018-04-17T14:20:54.722Z,24.65
2018-04-17T14:21:53.605Z,24.51
2018-04-17T14:22:53.548Z,24.29
2018-04-17T14:23:53.599Z,24.34
2018-04-17T14:24:53.454Z,24.36
2018-04-17T14:25:53.525Z,24.07
2018-04-17T14:26:53.411Z,23.86
2018-04-17T14:27:53.424Z,23.70
2018-04-17T14:28:53.392Z,23.78
2018-04-17T14:29:53.408Z,23.82
2018-04-17T14:32:17.472Z,24.13
2018-04-17T14:33:16.517Z,24.04
2018-04-17T14:34:16.531Z,23.88
2018-04-17T14:35:16.518Z,24.07
2018-04-17T14:36:16.488Z,24.06
2018-04-17T14:37:16.486Z,24.16
2018-04-17T14:38:16.509Z,24.31
2018-04-17T14:39:16.510Z,24.56
2018-04-17T14:40:16.469Z,24.75
2018-04-17T14:41:16.480Z,24.79
2018-04-17T14:42:16.467Z,24.68
2018-04-17T14:43:16.490Z,24.34
2018-04-17T14:44:16.452Z,23.97
2018-04-17T14:45:16.462Z,23.78
2018-04-17T14:46:16.449Z,23.88
2018-04-17T14:47:16.433Z,24.00
2018-04-17T14:48:16.444Z,24.01
2018-04-17T14:49:24.120Z,24.03
2018-04-17T14:51:10.817Z,24.01
2018-04-17T14:52:10.823Z,23.85
2018-04-17T14:53:10.817Z,23.73
2018-04-17T14:54:10.804Z,23.76
2018-04-17T14:55:10.809Z,23.67
2018-04-17T14:56:10.783Z,23.82
2018-04-17T14:57:10.784Z,23.82
2018-04-17T14:58:11.060Z,23.55
2018-04-17T14:59:10.749Z,23.42
2018-04-17T15:00:10.752Z,23.49
2018-04-17T15:01:10.741Z,23.41
2018-04-17T15:02:10.745Z,23.55
2018-04-17T15:03:10.715Z,23.51
2018-04-17T15:04:10.766Z,23.61
2018-04-17T15:05:10.805Z,23.69
2018-04-17T15:06:10.723Z,23.64
2018-04-17T15:07:10.710Z,23.44
2018-04-17T15:08:10.691Z,23.29
2018-04-17T15:09:10.725Z,23.29
2018-04-17T15:10:10.682Z,23.14
2018-04-17T15:11:10.697Z,23.23
2018-04-17T15:12:10.671Z,23.15
2018-04-17T15:13:10.657Z,23.26
2018-04-17T15:14:10.674Z,23.26
2018-04-17T15:15:10.672Z,23.33
2018-04-17T15:16:10.633Z,23.45
2018-04-17T15:17:12.395Z,23.51
2018-04-17T15:18:10.650Z,23.63
2018-04-17T15:19:10.604Z,23.64
2018-04-17T15:20:10.673Z,23.28
2018-04-17T15:21:10.585Z,23.06
2018-04-17T15:22:10.597Z,23.04
2018-04-17T15:23:10.605Z,23.06
2018-04-17T15:24:10.612Z,22.98
2018-04-17T15:25:10.581Z,22.99
2018-04-17T15:26:10.581Z,23.08
2018-04-17T15:27:10.538Z,23.06
2018-04-17T15:28:10.559Z,23.08
2018-04-17T15:29:10.577Z,23.13
2018-04-17T15:30:10.553Z,23.07
2018-04-17T15:31:10.537Z,23.17
2018-04-17T15:32:10.504Z,23.22
2018-04-17T15:33:10.491Z,23.26
2018-04-17T15:34:10.482Z,23.23
2018-04-17T15:35:10.480Z,23.18
2018-04-17T15:36:10.502Z,23.11
2018-04-17T15:37:10.490Z,23.14
2018-04-17T15:38:10.462Z,23.25
2018-04-17T15:39:10.457Z,23.28
2018-04-17T15:40:10.438Z,23.29
2018-04-17T15:41:10.484Z,23.44
2018-04-17T15:42:10.450Z,23.52
2018-04-17T15:43:10.422Z,23.54
2018-04-17T15:44:10.462Z,23.60
2018-04-17T15:45:10.400Z,23.66
2018-04-17T15:46:10.459Z,23.69
2018-04-17T15:47:10.387Z,23.66
2018-04-17T15:48:10.404Z,23.63
2018-04-17T15:49:10.382Z,23.42
2018-04-17T15:50:10.378Z,23.10
2018-04-17T15:51:10.391Z,23.13
2018-04-17T15:52:10.412Z,23.26
2018-04-17T15:53:10.385Z,23.22
2018-04-17T15:54:10.351Z,23.25
2018-04-17T15:55:10.329Z,23.34
2018-04-17T15:56:10.376Z,23.69
2018-04-17T15:57:10.307Z,23.82
2018-04-17T15:58:10.347Z,23.89
2018-04-17T15:59:10.321Z,24.08
2018-04-17T16:00:10.288Z,24.00
2018-04-17T16:01:10.292Z,23.70
2018-04-17T16:02:10.284Z,23.82
2018-04-17T16:03:10.284Z,23.66
2018-04-17T16:04:10.280Z,23.66
2018-04-17T16:05:10.260Z,23.54
2018-04-17T16:06:10.264Z,23.63
2018-04-17T16:07:10.284Z,23.59
2018-04-17T16:08:10.297Z,23.60
2018-04-17T16:09:10.216Z,23.37
2018-04-17T16:10:10.212Z,23.28
2018-04-17T16:11:10.199Z,23.22
2018-04-17T16:12:10.214Z,23.10
2018-04-17T16:13:10.259Z,23.01
2018-04-17T16:14:10.177Z,22.96
2018-04-17T16:15:10.205Z,23.07
2018-04-17T16:16:10.195Z,23.07
2018-04-17T16:17:10.496Z,22.80
2018-04-17T16:18:10.165Z,22.80
2018-04-17T16:19:10.451Z,22.66
2018-04-17T16:20:10.139Z,22.51
2018-04-17T16:21:10.142Z,22.37
2018-04-17T16:22:10.165Z,22.41
2018-04-17T16:23:10.125Z,22.40
2018-04-17T16:24:10.105Z,22.37
2018-04-17T16:25:10.096Z,22.33
2018-04-17T16:26:10.116Z,22.53
2018-04-17T16:27:10.104Z,22.38
2018-04-17T16:28:10.071Z,22.34
2018-04-17T16:29:10.108Z,22.37
2018-04-17T16:30:10.060Z,22.40
2018-04-17T16:31:10.117Z,22.34
2018-04-17T16:32:10.065Z,22.30
2018-04-17T16:33:10.052Z,22.19
2018-04-17T16:34:10.034Z,22.19
2018-04-17T16:35:10.009Z,22.15
2018-04-17T16:36:10.005Z,22.19
2018-04-17T16:37:10.033Z,22.21
2018-04-17T16:38:09.998Z,22.16
2018-04-17T16:39:09.979Z,22.23
2018-04-17T16:40:09.998Z,22.19
2018-04-17T16:41:10.031Z,22.18
2018-04-17T16:42:09.956Z,22.15
2018-04-17T16:43:10.060Z,22.12
2018-04-17T16:44:09.949Z,22.19
2018-04-17T16:45:10.073Z,22.21
2018-04-17T16:46:09.919Z,22.03
2018-04-17T16:47:09.905Z,22.09
2018-04-17T16:48:09.942Z,22.06
2018-04-17T16:49:09.895Z,22.16
2018-04-17T16:50:09.874Z,22.11
2018-04-17T16:51:09.896Z,22.06
2018-04-17T16:52:09.889Z,22.03
2018-04-17T16:53:09.848Z,21.97
2018-04-17T16:54:09.873Z,22.03
2018-04-17T16:55:09.836Z,22.04
2018-04-17T16:56:09.847Z,22.12
2018-04-17T16:57:09.804Z,22.15
2018-04-17T16:58:09.817Z,22.09
2018-04-17T16:59:09.818Z,22.04
2018-04-17T17:00:09.810Z,21.88
2018-04-17T17:01:09.817Z,21.84
2018-04-17T17:02:09.801Z,21.84
2018-04-17T17:03:09.757Z,21.91
2018-04-17T17:04:09.756Z,21.96
2018-04-17T17:05:09.761Z,21.94
2018-04-17T17:06:09.720Z,21.91
2018-04-17T17:07:09.741Z,21.96
2018-04-17T17:08:09.703Z,21.98
2018-04-17T17:09:09.737Z,22.03
2018-04-17T17:10:09.699Z,21.94
2018-04-17T17:11:09.697Z,21.97
2018-04-17T17:12:09.671Z,21.98
2018-04-17T17:13:09.676Z,21.90
2018-04-17T17:14:09.680Z,21.85
2018-04-17T17:15:09.679Z,21.82
2018-04-17T17:16:09.639Z,21.75
2018-04-17T17:17:09.639Z,21.62
2018-04-17T17:18:09.658Z,21.65
2018-04-17T17:19:09.616Z,21.65
2018-04-17T17:20:09.593Z,21.69
2018-04-17T17:21:09.583Z,21.62
2018-04-17T17:22:09.620Z,21.73
2018-04-17T17:23:09.579Z,21.62
2018-04-17T17:24:09.545Z,21.47
2018-04-17T17:25:09.566Z,21.56
2018-04-17T17:26:09.534Z,21.40
2018-04-17T17:27:09.535Z,21.41
2018-04-17T17:28:09.523Z,21.43
2018-04-17T17:29:09.532Z,21.44
2018-04-17T17:30:09.508Z,21.44
2018-04-17T17:31:09.478Z,21.43
2018-04-17T17:32:09.467Z,21.41
2018-04-17T17:33:09.464Z,21.41
2018-04-17T17:34:09.451Z,21.43
2018-04-17T17:35:09.437Z,21.34
2018-04-17T17:36:09.424Z,21.44
2018-04-17T17:37:09.417Z,21.29
2018-04-17T17:38:09.416Z,21.30
2018-04-17T17:39:09.402Z,21.40
2018-04-17T17:40:09.391Z,21.38
2018-04-17T17:41:09.419Z,21.41
2018-04-17T17:42:09.378Z,21.43
2018-04-17T17:43:09.351Z,21.30
2018-04-17T17:44:09.369Z,21.34
2018-04-17T17:45:09.332Z,21.29
2018-04-17T17:46:09.327Z,21.29
2018-04-17T17:47:09.375Z,21.25
2018-04-17T17:48:09.344Z,21.19
2018-04-17T17:49:09.286Z,21.14
2018-04-17T17:51:31.362Z,21.04
2018-04-17T17:52:31.331Z,21.11
2018-04-17T17:53:31.297Z,21.08
2018-04-17T17:54:31.282Z,20.97
2018-04-17T17:55:31.277Z,20.88
2018-04-17T17:56:31.275Z,20.77
2018-04-17T17:57:31.281Z,20.71
2018-04-17T17:58:31.258Z,20.56
2018-04-17T17:59:31.234Z,20.53
2018-04-17T18:00:31.211Z,20.37
2018-04-17T18:01:31.232Z,20.30
2018-04-17T18:02:31.215Z,20.19
2018-04-17T18:03:31.233Z,20.05
2018-04-17T18:04:33.185Z,20.07
2018-04-17T18:05:31.160Z,19.96
2018-04-17T18:06:31.143Z,19.82
2018-04-17T18:07:31.154Z,19.75
2018-04-17T18:08:31.267Z,19.71
2018-04-17T18:09:31.138Z,19.57
2018-04-17T18:10:31.102Z,19.56
2018-04-17T18:11:31.119Z,19.42
2018-04-17T18:12:31.102Z,19.44
2018-04-17T18:13:31.101Z,19.34
2018-04-17T18:14:31.049Z,19.22
2018-04-17T18:15:38.745Z,19.17
2018-04-17T18:17:32.624Z,19.08
2018-04-17T18:18:25.414Z,18.94
2018-04-17T18:20:18.814Z,18.93
2018-04-17T18:21:18.803Z,18.88
2018-04-17T18:23:13.184Z,18.81
2018-04-17T18:24:13.169Z,18.81
2018-04-17T18:25:13.177Z,18.61
2018-04-17T18:26:13.145Z,18.54
2018-04-17T18:27:13.153Z,18.46
2018-04-17T18:28:13.094Z,18.41
2018-04-17T18:29:13.115Z,18.41
2018-04-17T18:30:13.085Z,18.24
2018-04-17T18:31:13.052Z,18.27
2018-04-17T18:32:13.084Z,18.27
2018-04-17T18:33:13.042Z,18.20
2018-04-17T18:34:13.048Z,18.12
2018-04-17T18:35:24.732Z,18.08
2018-04-17T18:37:07.396Z,17.94
2018-04-17T18:38:07.369Z,17.93
2018-04-17T18:39:07.377Z,17.90
2018-04-17T18:40:07.930Z,17.88
2018-04-17T18:41:07.343Z,17.81
2018-04-17T18:42:07.828Z,17.79
2018-04-17T18:43:07.315Z,17.65
2018-04-17T18:44:07.335Z,17.56